sensor_id;sensor_type;location;lat;lon;timestamp;P1;durP1;ratioP1;P2;durP2;ratioP2
13764;SDS011;6953;48.810;9.204;2023-07-29T00:01:15;0.20;;;0.20;;
13764;SDS011;6953;48.810;9.204;2023-07-29T00:03:40;0.20;;;0.20;;
13764;SDS011;6953;48.810;9.204;2023-07-29T00:06:06;0.20;;;0.20;;
13764;SDS011;6953;48.810;9.204;2023-07-29T00:08:31;0.20;;;0.20;;
13764;SDS011;6953;48.810;9.204;2023-07-29T00:10:56;0.20;;;0.20;;
13764;SDS011;6953;48.810;9.204;2023-07-29T00:13:21;0.20;;;0.20;;
13764;SDS011;6953;48.810;9.204;2023-07-29T00:15:47;0.20;;;0.20;;
13764;SDS011;6953;48.810;9.204;2023-07-29T00:18:12;0.22;;;0.22;;
13764;SDS011;6953;48.810;9.204;2023-07-29T00:20:38;0.20;;;0.20;;
13764;SDS011;6953;48.810;9.204;2023-07-29T00:23:03;0.20;;;0.20;;
13764;SDS011;6953;48.810;9.204;2023-07-29T00:25:29;0.20;;;0.20;;
13764;SDS011;6953;48.810;9.204;2023-07-29T00:27:55;0.20;;;0.20;;
13764;SDS011;6953;48.810;9.204;2023-07-29T00:30:21;0.20;;;0.20;;
13764;SDS011;6953;48.810;9.204;2023-07-29T00:32:46;0.20;;;0.20;;
13764;SDS011;6953;48.810;9.204;2023-07-29T00:35:12;0.20;;;0.20;;
13764;SDS011;6953;48.810;9.204;2023-07-29T00:37:37;0.20;;;0.20;;
13764;SDS011;6953;48.810;9.204;2023-07-29T00:40:03;0.20;;;0.20;;
13764;SDS011;6953;48.810;9.204;2023-07-29T00:42:33;0.20;;;0.20;;
13764;SDS011;6953;48.810;9.204;2023-07-29T00:44:58;0.20;;;0.20;;
13764;SDS011;6953;48.810;9.204;2023-07-29T00:47:24;0.13;;;0.13;;
13764;SDS011;6953;48.810;9.204;2023-07-29T00:49:50;0.20;;;0.20;;
13764;SDS011;6953;48.810;9.204;2023-07-29T00:52:16;0.10;;;0.10;;
13764;SDS011;6953;48.810;9.204;2023-07-29T00:54:42;0.20;;;0.20;;
13764;SDS011;6953;48.810;9.204;2023-07-29T00:57:10;0.10;;;0.10;;
13764;SDS011;6953;48.810;9.204;2023-07-29T00:59:40;0.20;;;0.20;;
13764;SDS011;6953;48.810;9.204;2023-07-29T01:02:05;0.10;;;0.10;;
13764;SDS011;6953;48.810;9.204;2023-07-29T01:04:31;0.20;;;0.20;;
13764;SDS011;6953;48.810;9.204;2023-07-29T01:12:33;0.20;;;0.20;;
13764;SDS011;6953;48.810;9.204;2023-07-29T01:15:20;0.30;;;0.30;;
13764;SDS011;6953;48.810;9.204;2023-07-29T01:17:55;0.20;;;0.20;;
13764;SDS011;6953;48.810;9.204;2023-07-29T01:20:24;0.10;;;0.10;;
13764;SDS011;6953;48.810;9.204;2023-07-29T01:22:50;0.20;;;0.20;;
13764;SDS011;6953;48.810;9.204;2023-07-29T01:25:16;0.20;;;0.20;;
13764;SDS011;6953;48.810;9.204;2023-07-29T01:27:42;0.20;;;0.20;;
13764;SDS011;6953;48.810;9.204;2023-07-29T01:30:09;0.20;;;0.20;;
13764;SDS011;6953;48.810;9.204;2023-07-29T01:32:38;0.20;;;0.20;;
13764;SDS011;6953;48.810;9.204;2023-07-29T01:38:09;0.28;;;0.28;;
13764;SDS011;6953;48.810;9.204;2023-07-29T01:40:39;0.20;;;0.20;;
13764;SDS011;6953;48.810;9.204;2023-07-29T01:43:05;0.20;;;0.20;;
13764;SDS011;6953;48.810;9.204;2023-07-29T01:45:33;0.20;;;0.20;;
13764;SDS011;6953;48.810;9.204;2023-07-29T01:48:02;0.20;;;0.20;;
13764;SDS011;6953;48.810;9.204;2023-07-29T01:50:28;0.20;;;0.20;;
13764;SDS011;6953;48.810;9.204;2023-07-29T01:52:54;0.20;;;0.20;;
13764;SDS011;6953;48.810;9.204;2023-07-29T01:55:19;0.20;;;0.20;;
13764;SDS011;6953;48.810;9.204;2023-07-29T01:57:44;0.20;;;0.20;;
13764;SDS011;6953;48.810;9.204;2023-07-29T02:00:10;0.20;;;0.20;;
13764;SDS011;6953;48.810;9.204;2023-07-29T02:02:36;0.20;;;0.20;;
13764;SDS011;6953;48.810;9.204;2023-07-29T02:05:01;0.20;;;0.20;;
13764;SDS011;6953;48.810;9.204;2023-07-29T02:07:26;0.20;;;0.20;;
13764;SDS011;6953;48.810;9.204;2023-07-29T02:09:52;0.20;;;0.20;;
13764;SDS011;6953;48.810;9.204;2023-07-29T02:12:18;0.20;;;0.20;;
13764;SDS011;6953;48.810;9.204;2023-07-29T02:14:43;0.20;;;0.20;;
13764;SDS011;6953;48.810;9.204;2023-07-29T02:17:10;0.20;;;0.20;;
13764;SDS011;6953;48.810;9.204;2023-07-29T02:19:35;0.20;;;0.20;;
13764;SDS011;6953;48.810;9.204;2023-07-29T02:22:00;0.20;;;0.20;;
13764;SDS011;6953;48.810;9.204;2023-07-29T02:24:25;0.20;;;0.20;;
13764;SDS011;6953;48.810;9.204;2023-07-29T02:26:51;0.20;;;0.20;;
13764;SDS011;6953;48.810;9.204;2023-07-29T02:29:16;0.20;;;0.20;;
13764;SDS011;6953;48.810;9.204;2023-07-29T02:31:41;0.20;;;0.20;;
13764;SDS011;6953;48.810;9.204;2023-07-29T02:34:09;0.10;;;0.10;;
13764;SDS011;6953;48.810;9.204;2023-07-29T02:36:34;0.10;;;0.10;;
13764;SDS011;6953;48.810;9.204;2023-07-29T02:38:59;0.20;;;0.20;;
13764;SDS011;6953;48.810;9.204;2023-07-29T02:41:25;0.20;;;0.20;;
13764;SDS011;6953;48.810;9.204;2023-07-29T02:43:50;0.20;;;0.20;;
13764;SDS011;6953;48.810;9.204;2023-07-29T02:46:16;0.10;;;0.10;;
13764;SDS011;6953;48.810;9.204;2023-07-29T02:48:42;0.20;;;0.20;;
13764;SDS011;6953;48.810;9.204;2023-07-29T02:51:08;0.20;;;0.20;;
13764;SDS011;6953;48.810;9.204;2023-07-29T02:53:33;0.20;;;0.20;;
13764;SDS011;6953;48.810;9.204;2023-07-29T02:56:01;0.20;;;0.20;;
13764;SDS011;6953;48.810;9.204;2023-07-29T02:58:27;0.20;;;0.20;;
13764;SDS011;6953;48.810;9.204;2023-07-29T03:00:52;0.20;;;0.20;;
13764;SDS011;6953;48.810;9.204;2023-07-29T03:03:17;0.13;;;0.13;;
13764;SDS011;6953;48.810;9.204;2023-07-29T03:05:47;0.17;;;0.17;;
13764;SDS011;6953;48.810;9.204;2023-07-29T03:08:13;0.20;;;0.20;;
13764;SDS011;6953;48.810;9.204;2023-07-29T03:10:38;0.20;;;0.20;;
13764;SDS011;6953;48.810;9.204;2023-07-29T03:13:03;0.20;;;0.20;;
13764;SDS011;6953;48.810;9.204;2023-07-29T03:15:29;0.20;;;0.20;;
13764;SDS011;6953;48.810;9.204;2023-07-29T03:17:54;0.20;;;0.20;;
13764;SDS011;6953;48.810;9.204;2023-07-29T03:20:19;0.20;;;0.20;;
13764;SDS011;6953;48.810;9.204;2023-07-29T03:22:45;0.20;;;0.20;;
13764;SDS011;6953;48.810;9.204;2023-07-29T03:25:11;0.10;;;0.10;;
13764;SDS011;6953;48.810;9.204;2023-07-29T03:27:36;0.20;;;0.20;;
13764;SDS011;6953;48.810;9.204;2023-07-29T03:30:02;0.20;;;0.20;;
13764;SDS011;6953;48.810;9.204;2023-07-29T03:32:28;0.17;;;0.17;;
13764;SDS011;6953;48.810;9.204;2023-07-29T03:34:53;0.20;;;0.20;;
13764;SDS011;6953;48.810;9.204;2023-07-29T03:37:19;0.20;;;0.20;;
13764;SDS011;6953;48.810;9.204;2023-07-29T03:39:45;0.20;;;0.20;;
13764;SDS011;6953;48.810;9.204;2023-07-29T03:42:10;0.22;;;0.22;;
13764;SDS011;6953;48.810;9.204;2023-07-29T03:44:35;0.20;;;0.20;;
13764;SDS011;6953;48.810;9.204;2023-07-29T03:47:01;0.20;;;0.20;;
13764;SDS011;6953;48.810;9.204;2023-07-29T03:49:26;0.10;;;0.10;;
13764;SDS011;6953;48.810;9.204;2023-07-29T03:51:51;0.20;;;0.20;;
13764;SDS011;6953;48.810;9.204;2023-07-29T03:54:16;0.20;;;0.20;;
13764;SDS011;6953;48.810;9.204;2023-07-29T03:56:42;0.20;;;0.20;;
13764;SDS011;6953;48.810;9.204;2023-07-29T03:59:07;0.20;;;0.20;;
13764;SDS011;6953;48.810;9.204;2023-07-29T04:01:32;0.20;;;0.20;;
13764;SDS011;6953;48.810;9.204;2023-07-29T04:03:58;0.20;;;0.20;;
13764;SDS011;6953;48.810;9.204;2023-07-29T04:06:24;0.30;;;0.30;;
13764;SDS011;6953;48.810;9.204;2023-07-29T04:08:50;0.30;;;0.30;;
13764;SDS011;6953;48.810;9.204;2023-07-29T04:11:15;0.20;;;0.20;;
13764;SDS011;6953;48.810;9.204;2023-07-29T04:13:41;0.20;;;0.20;;
13764;SDS011;6953;48.810;9.204;2023-07-29T04:16:06;0.20;;;0.20;;
13764;SDS011;6953;48.810;9.204;2023-07-29T04:18:32;0.30;;;0.30;;
13764;SDS011;6953;48.810;9.204;2023-07-29T04:20:57;0.35;;;0.35;;
13764;SDS011;6953;48.810;9.204;2023-07-29T04:23:23;0.30;;;0.30;;
13764;SDS011;6953;48.810;9.204;2023-07-29T04:25:48;0.30;;;0.30;;
13764;SDS011;6953;48.810;9.204;2023-07-29T04:28:14;0.30;;;0.30;;
13764;SDS011;6953;48.810;9.204;2023-07-29T04:30:40;0.30;;;0.30;;
13764;SDS011;6953;48.810;9.204;2023-07-29T04:33:05;0.30;;;0.30;;
13764;SDS011;6953;48.810;9.204;2023-07-29T04:35:30;0.30;;;0.30;;
13764;SDS011;6953;48.810;9.204;2023-07-29T04:37:56;0.30;;;0.30;;
13764;SDS011;6953;48.810;9.204;2023-07-29T04:40:21;0.30;;;0.30;;
13764;SDS011;6953;48.810;9.204;2023-07-29T04:42:48;0.30;;;0.30;;
13764;SDS011;6953;48.810;9.204;2023-07-29T04:45:13;0.30;;;0.30;;
13764;SDS011;6953;48.810;9.204;2023-07-29T04:47:38;0.30;;;0.30;;
13764;SDS011;6953;48.810;9.204;2023-07-29T04:50:04;0.30;;;0.30;;
13764;SDS011;6953;48.810;9.204;2023-07-29T04:52:30;0.35;;;0.35;;
13764;SDS011;6953;48.810;9.204;2023-07-29T04:54:55;0.30;;;0.30;;
13764;SDS011;6953;48.810;9.204;2023-07-29T04:57:20;0.20;;;0.20;;
13764;SDS011;6953;48.810;9.204;2023-07-29T04:59:46;0.35;;;0.35;;
13764;SDS011;6953;48.810;9.204;2023-07-29T05:02:11;0.20;;;0.20;;
13764;SDS011;6953;48.810;9.204;2023-07-29T05:04:36;0.20;;;0.20;;
13764;SDS011;6953;48.810;9.204;2023-07-29T05:07:02;0.20;;;0.20;;
13764;SDS011;6953;48.810;9.204;2023-07-29T05:09:27;0.20;;;0.20;;
13764;SDS011;6953;48.810;9.204;2023-07-29T05:11:52;0.20;;;0.20;;
13764;SDS011;6953;48.810;9.204;2023-07-29T05:14:17;0.20;;;0.20;;
13764;SDS011;6953;48.810;9.204;2023-07-29T05:16:43;0.20;;;0.20;;
13764;SDS011;6953;48.810;9.204;2023-07-29T05:19:08;0.20;;;0.20;;
13764;SDS011;6953;48.810;9.204;2023-07-29T05:21:34;0.20;;;0.20;;
13764;SDS011;6953;48.810;9.204;2023-07-29T05:23:59;0.20;;;0.20;;
13764;SDS011;6953;48.810;9.204;2023-07-29T05:26:25;0.10;;;0.10;;
13764;SDS011;6953;48.810;9.204;2023-07-29T05:28:50;0.20;;;0.20;;
13764;SDS011;6953;48.810;9.204;2023-07-29T05:31:15;0.20;;;0.20;;
13764;SDS011;6953;48.810;9.204;2023-07-29T05:33:41;0.20;;;0.20;;
13764;SDS011;6953;48.810;9.204;2023-07-29T05:36:06;0.28;;;0.28;;
13764;SDS011;6953;48.810;9.204;2023-07-29T05:38:31;0.20;;;0.20;;
13764;SDS011;6953;48.810;9.204;2023-07-29T05:40:57;0.20;;;0.20;;
13764;SDS011;6953;48.810;9.204;2023-07-29T05:43:23;0.20;;;0.20;;
13764;SDS011;6953;48.810;9.204;2023-07-29T05:45:49;0.20;;;0.20;;
13764;SDS011;6953;48.810;9.204;2023-07-29T05:48:15;0.10;;;0.10;;
13764;SDS011;6953;48.810;9.204;2023-07-29T05:50:40;0.20;;;0.20;;
13764;SDS011;6953;48.810;9.204;2023-07-29T05:53:05;0.20;;;0.20;;
13764;SDS011;6953;48.810;9.204;2023-07-29T05:55:30;0.20;;;0.20;;
13764;SDS011;6953;48.810;9.204;2023-07-29T05:57:56;0.20;;;0.20;;
13764;SDS011;6953;48.810;9.204;2023-07-29T06:00:22;0.20;;;0.20;;
13764;SDS011;6953;48.810;9.204;2023-07-29T06:02:48;0.20;;;0.20;;
13764;SDS011;6953;48.810;9.204;2023-07-29T06:05:13;0.10;;;0.10;;
13764;SDS011;6953;48.810;9.204;2023-07-29T06:07:38;0.15;;;0.15;;
13764;SDS011;6953;48.810;9.204;2023-07-29T06:10:08;0.10;;;0.10;;
13764;SDS011;6953;48.810;9.204;2023-07-29T06:12:36;0.10;;;0.10;;
13764;SDS011;6953;48.810;9.204;2023-07-29T06:15:02;0.10;;;0.10;;
13764;SDS011;6953;48.810;9.204;2023-07-29T06:17:27;0.10;;;0.10;;
13764;SDS011;6953;48.810;9.204;2023-07-29T06:19:52;0.20;;;0.20;;
13764;SDS011;6953;48.810;9.204;2023-07-29T06:22:18;0.17;;;0.17;;
13764;SDS011;6953;48.810;9.204;2023-07-29T06:24:43;0.20;;;0.20;;
13764;SDS011;6953;48.810;9.204;2023-07-29T06:27:08;0.17;;;0.17;;
13764;SDS011;6953;48.810;9.204;2023-07-29T06:29:33;0.20;;;0.20;;
13764;SDS011;6953;48.810;9.204;2023-07-29T06:31:59;0.20;;;0.20;;
13764;SDS011;6953;48.810;9.204;2023-07-29T06:34:24;0.20;;;0.20;;
13764;SDS011;6953;48.810;9.204;2023-07-29T06:36:49;0.20;;;0.20;;
13764;SDS011;6953;48.810;9.204;2023-07-29T06:39:15;0.20;;;0.20;;
13764;SDS011;6953;48.810;9.204;2023-07-29T06:41:40;0.10;;;0.10;;
13764;SDS011;6953;48.810;9.204;2023-07-29T06:44:05;0.20;;;0.20;;
13764;SDS011;6953;48.810;9.204;2023-07-29T06:46:31;0.10;;;0.10;;
13764;SDS011;6953;48.810;9.204;2023-07-29T06:48:56;0.20;;;0.20;;
13764;SDS011;6953;48.810;9.204;2023-07-29T06:51:22;0.20;;;0.20;;
13764;SDS011;6953;48.810;9.204;2023-07-29T06:53:47;0.15;;;0.15;;
13764;SDS011;6953;48.810;9.204;2023-07-29T06:56:12;0.20;;;0.20;;
13764;SDS011;6953;48.810;9.204;2023-07-29T06:58:38;0.10;;;0.10;;
13764;SDS011;6953;48.810;9.204;2023-07-29T07:01:03;0.20;;;0.20;;
13764;SDS011;6953;48.810;9.204;2023-07-29T07:03:28;0.20;;;0.20;;
13764;SDS011;6953;48.810;9.204;2023-07-29T07:05:54;0.10;;;0.10;;
13764;SDS011;6953;48.810;9.204;2023-07-29T07:08:19;0.20;;;0.20;;
13764;SDS011;6953;48.810;9.204;2023-07-29T07:10:44;0.20;;;0.20;;
13764;SDS011;6953;48.810;9.204;2023-07-29T07:13:11;0.20;;;0.20;;
13764;SDS011;6953;48.810;9.204;2023-07-29T07:15:37;0.20;;;0.20;;
13764;SDS011;6953;48.810;9.204;2023-07-29T07:18:02;0.20;;;0.20;;
13764;SDS011;6953;48.810;9.204;2023-07-29T07:20:28;0.20;;;0.20;;
13764;SDS011;6953;48.810;9.204;2023-07-29T07:22:53;0.20;;;0.20;;
13764;SDS011;6953;48.810;9.204;2023-07-29T07:25:19;0.30;;;0.30;;
13764;SDS011;6953;48.810;9.204;2023-07-29T07:27:44;0.30;;;0.30;;
13764;SDS011;6953;48.810;9.204;2023-07-29T07:30:10;0.20;;;0.20;;
13764;SDS011;6953;48.810;9.204;2023-07-29T07:32:35;0.20;;;0.20;;
13764;SDS011;6953;48.810;9.204;2023-07-29T07:35:01;0.20;;;0.20;;
13764;SDS011;6953;48.810;9.204;2023-07-29T07:37:26;0.20;;;0.20;;
13764;SDS011;6953;48.810;9.204;2023-07-29T07:39:52;0.30;;;0.30;;
13764;SDS011;6953;48.810;9.204;2023-07-29T07:42:17;0.25;;;0.25;;
13764;SDS011;6953;48.810;9.204;2023-07-29T07:44:43;0.20;;;0.20;;
13764;SDS011;6953;48.810;9.204;2023-07-29T07:47:08;0.20;;;0.20;;
13764;SDS011;6953;48.810;9.204;2023-07-29T07:49:33;0.20;;;0.20;;
13764;SDS011;6953;48.810;9.204;2023-07-29T07:51:58;0.10;;;0.10;;
13764;SDS011;6953;48.810;9.204;2023-07-29T07:54:24;0.20;;;0.20;;
13764;SDS011;6953;48.810;9.204;2023-07-29T07:56:49;0.20;;;0.20;;
13764;SDS011;6953;48.810;9.204;2023-07-29T07:59:14;0.20;;;0.20;;
13764;SDS011;6953;48.810;9.204;2023-07-29T08:01:40;0.10;;;0.10;;
13764;SDS011;6953;48.810;9.204;2023-07-29T08:04:05;0.10;;;0.10;;
13764;SDS011;6953;48.810;9.204;2023-07-29T08:06:31;0.17;;;0.17;;
13764;SDS011;6953;48.810;9.204;2023-07-29T08:08:58;0.20;;;0.20;;
13764;SDS011;6953;48.810;9.204;2023-07-29T08:11:23;0.10;;;0.10;;
13764;SDS011;6953;48.810;9.204;2023-07-29T08:13:52;0.10;;;0.10;;
13764;SDS011;6953;48.810;9.204;2023-07-29T08:16:17;0.10;;;0.10;;
13764;SDS011;6953;48.810;9.204;2023-07-29T08:18:43;0.10;;;0.10;;
13764;SDS011;6953;48.810;9.204;2023-07-29T08:21:08;0.10;;;0.10;;
13764;SDS011;6953;48.810;9.204;2023-07-29T08:23:34;0.10;;;0.10;;
13764;SDS011;6953;48.810;9.204;2023-07-29T08:26:04;0.10;;;0.10;;
13764;SDS011;6953;48.810;9.204;2023-07-29T08:28:31;0.10;;;0.10;;
13764;SDS011;6953;48.810;9.204;2023-07-29T08:30:58;0.10;;;0.10;;
13764;SDS011;6953;48.810;9.204;2023-07-29T08:33:23;0.10;;;0.10;;
13764;SDS011;6953;48.810;9.204;2023-07-29T08:35:49;0.10;;;0.10;;
13764;SDS011;6953;48.810;9.204;2023-07-29T08:38:14;0.10;;;0.10;;
13764;SDS011;6953;48.810;9.204;2023-07-29T08:40:45;0.10;;;0.10;;
13764;SDS011;6953;48.810;9.204;2023-07-29T08:43:15;0.20;;;0.20;;
13764;SDS011;6953;48.810;9.204;2023-07-29T08:45:43;0.10;;;0.10;;
13764;SDS011;6953;48.810;9.204;2023-07-29T08:48:09;0.10;;;0.10;;
13764;SDS011;6953;48.810;9.204;2023-07-29T08:50:36;0.20;;;0.20;;
13764;SDS011;6953;48.810;9.204;2023-07-29T08:53:05;0.17;;;0.17;;
13764;SDS011;6953;48.810;9.204;2023-07-29T08:55:31;0.10;;;0.10;;
13764;SDS011;6953;48.810;9.204;2023-07-29T08:57:57;0.10;;;0.10;;
13764;SDS011;6953;48.810;9.204;2023-07-29T09:00:24;0.17;;;0.17;;
13764;SDS011;6953;48.810;9.204;2023-07-29T09:02:51;0.10;;;0.10;;
13764;SDS011;6953;48.810;9.204;2023-07-29T09:05:16;0.10;;;0.10;;
13764;SDS011;6953;48.810;9.204;2023-07-29T09:07:41;0.10;;;0.10;;
13764;SDS011;6953;48.810;9.204;2023-07-29T09:10:09;0.10;;;0.10;;
13764;SDS011;6953;48.810;9.204;2023-07-29T09:12:36;0.10;;;0.10;;
13764;SDS011;6953;48.810;9.204;2023-07-29T09:15:01;0.10;;;0.10;;
13764;SDS011;6953;48.810;9.204;2023-07-29T09:17:26;0.10;;;0.10;;
13764;SDS011;6953;48.810;9.204;2023-07-29T09:19:56;0.10;;;0.10;;
13764;SDS011;6953;48.810;9.204;2023-07-29T09:22:22;0.10;;;0.10;;
13764;SDS011;6953;48.810;9.204;2023-07-29T09:24:47;0.10;;;0.10;;
13764;SDS011;6953;48.810;9.204;2023-07-29T09:27:25;0.10;;;0.10;;
13764;SDS011;6953;48.810;9.204;2023-07-29T09:29:52;0.10;;;0.10;;
13764;SDS011;6953;48.810;9.204;2023-07-29T09:32:21;0.10;;;0.10;;
13764;SDS011;6953;48.810;9.204;2023-07-29T09:34:47;0.15;;;0.15;;
13764;SDS011;6953;48.810;9.204;2023-07-29T09:37:31;0.00;;;0.00;;
13764;SDS011;6953;48.810;9.204;2023-07-29T09:39:57;0.00;;;0.00;;
13764;SDS011;6953;48.810;9.204;2023-07-29T09:42:22;0.00;;;0.00;;
13764;SDS011;6953;48.810;9.204;2023-07-29T09:44:49;0.00;;;0.00;;
13764;SDS011;6953;48.810;9.204;2023-07-29T09:47:21;0.00;;;0.00;;
13764;SDS011;6953;48.810;9.204;2023-07-29T09:49:48;0.00;;;0.00;;
13764;SDS011;6953;48.810;9.204;2023-07-29T09:52:15;0.10;;;0.10;;
13764;SDS011;6953;48.810;9.204;2023-07-29T09:54:45;0.05;;;0.05;;
13764;SDS011;6953;48.810;9.204;2023-07-29T09:57:12;0.00;;;0.00;;
13764;SDS011;6953;48.810;9.204;2023-07-29T09:59:39;0.10;;;0.10;;
13764;SDS011;6953;48.810;9.204;2023-07-29T10:02:04;0.00;;;0.00;;
13764;SDS011;6953;48.810;9.204;2023-07-29T10:04:33;0.10;;;0.10;;
13764;SDS011;6953;48.810;9.204;2023-07-29T10:06:58;0.00;;;0.00;;
13764;SDS011;6953;48.810;9.204;2023-07-29T10:09:25;0.00;;;0.00;;
13764;SDS011;6953;48.810;9.204;2023-07-29T10:11:51;0.00;;;0.00;;
13764;SDS011;6953;48.810;9.204;2023-07-29T10:14:18;0.10;;;0.10;;
13764;SDS011;6953;48.810;9.204;2023-07-29T10:16:44;0.00;;;0.00;;
13764;SDS011;6953;48.810;9.204;2023-07-29T10:19:11;0.10;;;0.10;;
13764;SDS011;6953;48.810;9.204;2023-07-29T10:21:39;0.00;;;0.00;;
13764;SDS011;6953;48.810;9.204;2023-07-29T10:24:11;0.00;;;0.00;;
13764;SDS011;6953;48.810;9.204;2023-07-29T10:26:41;0.10;;;0.10;;
13764;SDS011;6953;48.810;9.204;2023-07-29T10:29:11;0.13;;;0.13;;
13764;SDS011;6953;48.810;9.204;2023-07-29T10:31:38;0.10;;;0.10;;
13764;SDS011;6953;48.810;9.204;2023-07-29T10:34:05;0.10;;;0.10;;
13764;SDS011;6953;48.810;9.204;2023-07-29T10:36:30;0.17;;;0.17;;
13764;SDS011;6953;48.810;9.204;2023-07-29T10:38:56;0.10;;;0.10;;
13764;SDS011;6953;48.810;9.204;2023-07-29T10:41:21;0.20;;;0.20;;
13764;SDS011;6953;48.810;9.204;2023-07-29T10:43:47;0.20;;;0.20;;
13764;SDS011;6953;48.810;9.204;2023-07-29T10:46:22;0.10;;;0.10;;
13764;SDS011;6953;48.810;9.204;2023-07-29T10:53:55;0.17;;;0.17;;
13764;SDS011;6953;48.810;9.204;2023-07-29T10:56:32;0.20;;;0.20;;
13764;SDS011;6953;48.810;9.204;2023-07-29T11:01:57;0.10;;;0.10;;
13764;SDS011;6953;48.810;9.204;2023-07-29T11:04:24;0.10;;;0.10;;
13764;SDS011;6953;48.810;9.204;2023-07-29T11:07:01;0.10;;;0.10;;
13764;SDS011;6953;48.810;9.204;2023-07-29T11:17:55;0.10;;;0.10;;
13764;SDS011;6953;48.810;9.204;2023-07-29T11:20:31;0.00;;;0.00;;
13764;SDS011;6953;48.810;9.204;2023-07-29T11:22:58;0.10;;;0.10;;
13764;SDS011;6953;48.810;9.204;2023-07-29T11:25:26;0.00;;;0.00;;
13764;SDS011;6953;48.810;9.204;2023-07-29T11:27:53;0.10;;;0.10;;
13764;SDS011;6953;48.810;9.204;2023-07-29T11:30:20;0.10;;;0.10;;
13764;SDS011;6953;48.810;9.204;2023-07-29T11:32:46;0.05;;;0.05;;
13764;SDS011;6953;48.810;9.204;2023-07-29T11:35:12;0.10;;;0.10;;
13764;SDS011;6953;48.810;9.204;2023-07-29T11:37:40;0.10;;;0.10;;
13764;SDS011;6953;48.810;9.204;2023-07-29T11:40:07;0.10;;;0.10;;
13764;SDS011;6953;48.810;9.204;2023-07-29T11:42:36;0.10;;;0.10;;
13764;SDS011;6953;48.810;9.204;2023-07-29T11:45:02;0.10;;;0.10;;
13764;SDS011;6953;48.810;9.204;2023-07-29T11:47:30;0.10;;;0.10;;
13764;SDS011;6953;48.810;9.204;2023-07-29T11:49:58;0.10;;;0.10;;
13764;SDS011;6953;48.810;9.204;2023-07-29T11:52:27;0.10;;;0.10;;
13764;SDS011;6953;48.810;9.204;2023-07-29T11:54:53;0.10;;;0.10;;
13764;SDS011;6953;48.810;9.204;2023-07-29T11:57:19;0.10;;;0.10;;
13764;SDS011;6953;48.810;9.204;2023-07-29T11:59:45;0.13;;;0.13;;
13764;SDS011;6953;48.810;9.204;2023-07-29T12:02:13;0.20;;;0.20;;
13764;SDS011;6953;48.810;9.204;2023-07-29T12:04:41;0.10;;;0.10;;
13764;SDS011;6953;48.810;9.204;2023-07-29T12:07:08;0.10;;;0.10;;
13764;SDS011;6953;48.810;9.204;2023-07-29T12:09:34;0.10;;;0.10;;
13764;SDS011;6953;48.810;9.204;2023-07-29T12:12:01;0.10;;;0.10;;
13764;SDS011;6953;48.810;9.204;2023-07-29T12:14:28;0.10;;;0.10;;
13764;SDS011;6953;48.810;9.204;2023-07-29T12:16:54;0.10;;;0.10;;
13764;SDS011;6953;48.810;9.204;2023-07-29T12:19:19;0.03;;;0.03;;
13764;SDS011;6953;48.810;9.204;2023-07-29T12:21:47;0.10;;;0.10;;
13764;SDS011;6953;48.810;9.204;2023-07-29T12:24:13;0.10;;;0.10;;
13764;SDS011;6953;48.810;9.204;2023-07-29T12:26:39;0.10;;;0.10;;
13764;SDS011;6953;48.810;9.204;2023-07-29T12:29:12;0.10;;;0.10;;
13764;SDS011;6953;48.810;9.204;2023-07-29T12:31:38;0.10;;;0.10;;
13764;SDS011;6953;48.810;9.204;2023-07-29T12:34:04;0.00;;;0.00;;
13764;SDS011;6953;48.810;9.204;2023-07-29T12:36:43;0.10;;;0.10;;
13764;SDS011;6953;48.810;9.204;2023-07-29T12:39:16;0.05;;;0.05;;
13764;SDS011;6953;48.810;9.204;2023-07-29T12:41:42;0.10;;;0.10;;
13764;SDS011;6953;48.810;9.204;2023-07-29T12:44:08;0.10;;;0.10;;
13764;SDS011;6953;48.810;9.204;2023-07-29T12:46:33;0.10;;;0.10;;
13764;SDS011;6953;48.810;9.204;2023-07-29T12:48:58;0.10;;;0.10;;
13764;SDS011;6953;48.810;9.204;2023-07-29T12:51:23;0.03;;;0.03;;
13764;SDS011;6953;48.810;9.204;2023-07-29T12:53:49;0.00;;;0.00;;
13764;SDS011;6953;48.810;9.204;2023-07-29T12:56:14;0.10;;;0.10;;
13764;SDS011;6953;48.810;9.204;2023-07-29T12:58:39;0.00;;;0.00;;
13764;SDS011;6953;48.810;9.204;2023-07-29T13:01:05;0.10;;;0.10;;
13764;SDS011;6953;48.810;9.204;2023-07-29T13:03:30;0.10;;;0.10;;
13764;SDS011;6953;48.810;9.204;2023-07-29T13:05:55;0.10;;;0.10;;
13764;SDS011;6953;48.810;9.204;2023-07-29T13:08:20;0.10;;;0.10;;
13764;SDS011;6953;48.810;9.204;2023-07-29T13:10:48;0.10;;;0.10;;
13764;SDS011;6953;48.810;9.204;2023-07-29T13:13:13;0.10;;;0.10;;
13764;SDS011;6953;48.810;9.204;2023-07-29T13:15:38;0.10;;;0.10;;
13764;SDS011;6953;48.810;9.204;2023-07-29T13:18:04;0.10;;;0.10;;
13764;SDS011;6953;48.810;9.204;2023-07-29T13:20:29;0.10;;;0.10;;
13764;SDS011;6953;48.810;9.204;2023-07-29T13:22:55;0.10;;;0.10;;
13764;SDS011;6953;48.810;9.204;2023-07-29T13:25:20;0.10;;;0.10;;
13764;SDS011;6953;48.810;9.204;2023-07-29T13:27:45;0.10;;;0.10;;
13764;SDS011;6953;48.810;9.204;2023-07-29T13:30:11;0.10;;;0.10;;
13764;SDS011;6953;48.810;9.204;2023-07-29T13:32:36;0.10;;;0.10;;
13764;SDS011;6953;48.810;9.204;2023-07-29T13:35:01;0.10;;;0.10;;
13764;SDS011;6953;48.810;9.204;2023-07-29T13:37:27;0.10;;;0.10;;
13764;SDS011;6953;48.810;9.204;2023-07-29T13:39:52;0.08;;;0.08;;
13764;SDS011;6953;48.810;9.204;2023-07-29T13:42:17;0.10;;;0.10;;
13764;SDS011;6953;48.810;9.204;2023-07-29T13:44:42;0.10;;;0.10;;
13764;SDS011;6953;48.810;9.204;2023-07-29T13:47:08;0.00;;;0.00;;
13764;SDS011;6953;48.810;9.204;2023-07-29T13:49:33;0.10;;;0.10;;
13764;SDS011;6953;48.810;9.204;2023-07-29T13:51:58;0.10;;;0.10;;
13764;SDS011;6953;48.810;9.204;2023-07-29T13:54:23;0.10;;;0.10;;
13764;SDS011;6953;48.810;9.204;2023-07-29T13:56:49;0.10;;;0.10;;
13764;SDS011;6953;48.810;9.204;2023-07-29T13:59:14;0.10;;;0.10;;
13764;SDS011;6953;48.810;9.204;2023-07-29T14:01:39;0.10;;;0.10;;
13764;SDS011;6953;48.810;9.204;2023-07-29T14:04:05;0.10;;;0.10;;
13764;SDS011;6953;48.810;9.204;2023-07-29T14:06:30;0.10;;;0.10;;
13764;SDS011;6953;48.810;9.204;2023-07-29T14:08:55;0.10;;;0.10;;
13764;SDS011;6953;48.810;9.204;2023-07-29T14:11:20;0.10;;;0.10;;
13764;SDS011;6953;48.810;9.204;2023-07-29T14:13:46;0.10;;;0.10;;
13764;SDS011;6953;48.810;9.204;2023-07-29T14:16:11;0.10;;;0.10;;
13764;SDS011;6953;48.810;9.204;2023-07-29T14:18:36;0.10;;;0.10;;
13764;SDS011;6953;48.810;9.204;2023-07-29T14:21:02;0.10;;;0.10;;
13764;SDS011;6953;48.810;9.204;2023-07-29T14:23:27;0.10;;;0.10;;
13764;SDS011;6953;48.810;9.204;2023-07-29T14:25:52;0.10;;;0.10;;
13764;SDS011;6953;48.810;9.204;2023-07-29T14:28:18;0.10;;;0.10;;
13764;SDS011;6953;48.810;9.204;2023-07-29T14:30:43;0.10;;;0.10;;
13764;SDS011;6953;48.810;9.204;2023-07-29T14:33:08;0.10;;;0.10;;
13764;SDS011;6953;48.810;9.204;2023-07-29T14:35:34;0.10;;;0.10;;
13764;SDS011;6953;48.810;9.204;2023-07-29T14:37:59;0.10;;;0.10;;
13764;SDS011;6953;48.810;9.204;2023-07-29T14:40:24;0.10;;;0.10;;
13764;SDS011;6953;48.810;9.204;2023-07-29T14:42:50;0.10;;;0.10;;
13764;SDS011;6953;48.810;9.204;2023-07-29T14:45:15;0.10;;;0.10;;
13764;SDS011;6953;48.810;9.204;2023-07-29T14:47:40;0.10;;;0.10;;
13764;SDS011;6953;48.810;9.204;2023-07-29T14:50:06;0.10;;;0.10;;
13764;SDS011;6953;48.810;9.204;2023-07-29T14:52:31;0.10;;;0.10;;
13764;SDS011;6953;48.810;9.204;2023-07-29T14:54:56;0.10;;;0.10;;
13764;SDS011;6953;48.810;9.204;2023-07-29T14:57:22;0.10;;;0.10;;
13764;SDS011;6953;48.810;9.204;2023-07-29T14:59:47;0.10;;;0.10;;
13764;SDS011;6953;48.810;9.204;2023-07-29T15:02:12;0.10;;;0.10;;
13764;SDS011;6953;48.810;9.204;2023-07-29T15:04:37;0.00;;;0.00;;
13764;SDS011;6953;48.810;9.204;2023-07-29T15:07:03;0.00;;;0.00;;
13764;SDS011;6953;48.810;9.204;2023-07-29T15:09:28;0.00;;;0.00;;
13764;SDS011;6953;48.810;9.204;2023-07-29T15:11:54;0.00;;;0.00;;
13764;SDS011;6953;48.810;9.204;2023-07-29T15:14:19;0.00;;;0.00;;
13764;SDS011;6953;48.810;9.204;2023-07-29T15:16:44;0.00;;;0.00;;
13764;SDS011;6953;48.810;9.204;2023-07-29T15:19:10;0.00;;;0.00;;